| time (UTC) | temp C | wind direction | speed KPH | gust KPH | rain 1hr cm | rain 24hr cm | rain mn cm | humidity % | barometer mb |
| 20260508060019 | 9 | 300 | 0.0 | 0.0 | 0.00 | 0.33 | 0.00 | 85 | 1012.9 |
| 20260508054522 | 10 | 22 | 4.8 | 8.0 | 0.00 | 0.33 | 0.33 | 84 | 1012.8 |
| 20260508053006 | 10 | 58 | 0.0 | 0.0 | 0.00 | 0.33 | 0.33 | 82 | 1012.7 |
| 20260508051520 | 10 | 274 | 0.0 | 0.0 | 0.00 | 0.33 | 0.33 | 82 | 1012.6 |
| 20260508050017 | 10 | 274 | 0.0 | 4.8 | 0.00 | 0.33 | 0.33 | 82 | 1012.3 |
| 20260508044520 | 11 | 63 | 1.6 | 3.2 | 0.00 | 0.33 | 0.33 | 80 | 1012.3 |
| 20260508043024 | 11 | 337 | 1.6 | 1.6 | 0.00 | 0.33 | 0.33 | 79 | 1012.3 |
| 20260508041514 | 12 | 248 | 0.0 | 1.6 | 0.00 | 0.33 | 0.33 | 76 | 1012.2 |
| 20260508040013 | 12 | 360 | 1.6 | 3.2 | 0.00 | 0.33 | 0.33 | 77 | 1012.1 |
| 20260508034518 | 13 | 115 | 0.0 | 1.6 | 0.00 | 0.33 | 0.33 | 72 | 1012.0 |
| 20260508033020 | 13 | 279 | 3.2 | 4.8 | 0.00 | 0.33 | 0.33 | 73 | 1011.8 |
| 20260508031505 | 15 | 88 | 0.0 | 0.0 | 0.00 | 0.33 | 0.33 | 70 | 1011.6 |
| 20260508030010 | 15 | 84 | 1.6 | 3.2 | 0.00 | 0.33 | 0.33 | 66 | 1011.5 |
| 20260508024514 | 16 | 147 | 0.0 | 0.0 | 0.00 | 0.33 | 0.33 | 63 | 1011.5 |
| 20260508023003 | 17 | 153 | 1.6 | 3.2 | 0.00 | 0.33 | 0.33 | 61 | 1011.5 |
| 20260508021503 | 17 | 161 | 3.2 | 4.8 | 0.00 | 0.33 | 0.33 | 58 | 1011.3 |
| 20260508020012 | 18 | 143 | 3.2 | 6.4 | 0.00 | 0.33 | 0.33 | 57 | 1011.3 |
| 20260508014512 | 18 | 153 | 6.4 | 8.0 | 0.00 | 0.33 | 0.33 | 56 | 1011.4 |
| 20260508013017 | 19 | 141 | 3.2 | 6.4 | 0.00 | 0.33 | 0.33 | 54 | 1011.5 |
| 20260508011506 | 19 | 122 | 4.8 | 9.7 | 0.00 | 0.33 | 0.33 | 53 | 1011.5 |
| 20260508010004 | 20 | 158 | 3.2 | 8.0 | 0.00 | 0.33 | 0.33 | 50 | 1011.6 |
| 20260508004510 | 19 | 149 | 1.6 | 4.8 | 0.00 | 0.33 | 0.33 | 51 | 1011.7 |
| 20260508003012 | 18 | 52 | 0.0 | 1.6 | 0.00 | 0.33 | 0.33 | 56 | 1011.8 |
| 20260508001520 | 18 | 118 | 6.4 | 12.9 | 0.00 | 0.33 | 0.33 | 55 | 1011.9 |
| 20260508000006 | 18 | 156 | 9.7 | 14.5 | 0.00 | 0.33 | 0.33 | 52 | 1011.8 |
| 20260507234508 | 18 | 110 | 6.4 | 11.3 | 0.00 | 0.33 | 0.33 | 57 | 1012.0 |
| 20260507233012 | 17 | 152 | 6.4 | 9.7 | 0.00 | 0.33 | 0.33 | 61 | 1012.1 |
| 20260507231517 | 17 | 134 | 8.0 | 12.9 | 0.00 | 0.33 | 0.33 | 60 | 1012.0 |
| 20260507230019 | 17 | 170 | 6.4 | 9.7 | 0.00 | 0.33 | 0.33 | 59 | 1012.4 |
| 20260507224506 | 17 | 181 | 6.4 | 14.5 | 0.00 | 0.33 | 0.33 | 58 | 1012.3 |
| 20260507223008 | 17 | 170 | 3.2 | 8.0 | 0.00 | 0.33 | 0.33 | 54 | 1012.6 |
| 20260507221512 | 18 | 174 | 6.4 | 9.7 | 0.00 | 0.33 | 0.33 | 51 | 1012.5 |
| 20260507220017 | 18 | 156 | 1.6 | 9.7 | 0.00 | 0.33 | 0.33 | 44 | 1012.4 |
| 20260507214526 | 18 | 6 | 1.6 | 9.7 | 0.00 | 0.33 | 0.33 | 46 | 1012.5 |
| 20260507213006 | 18 | 72 | 3.2 | 11.3 | 0.00 | 0.33 | 0.33 | 51 | 1012.7 |
| 20260507211513 | 17 | 201 | 1.6 | 6.4 | 0.00 | 0.33 | 0.33 | 54 | 1013.2 |
| 20260507210014 | 17 | 244 | 1.6 | 8.0 | 0.00 | 0.33 | 0.33 | 59 | 1013.7 |
| 20260507204519 | 17 | 237 | 6.4 | 9.7 | 0.00 | 0.33 | 0.33 | 54 | 1013.6 |
| 20260507203024 | 18 | 188 | 11.3 | 16.1 | 0.00 | 0.33 | 0.33 | 55 | 1013.2 |
| 20260507201527 | 18 | 198 | 8.0 | 14.5 | 0.00 | 0.33 | 0.33 | 60 | 1013.4 |
| 20260507200012 | 17 | 141 | 8.0 | 12.9 | 0.00 | 0.33 | 0.33 | 58 | 1013.4 |
| 20260507194516 | 17 | 141 | 8.0 | 16.1 | 0.00 | 0.33 | 0.33 | 63 | 1013.5 |
| 20260507193020 | 17 | 142 | 6.4 | 17.7 | 0.00 | 0.33 | 0.33 | 62 | 1013.6 |
| 20260507191526 | 16 | 183 | 11.3 | 16.1 | 0.00 | 0.33 | 0.33 | 62 | 1013.6 |
| 20260507190025 | 16 | 121 | 12.9 | 17.7 | 0.00 | 0.33 | 0.33 | 62 | 1013.7 |
| 20260507184512 | 16 | 121 | 9.7 | 17.7 | 0.00 | 0.33 | 0.33 | 68 | 1013.9 |
| 20260507183020 | 15 | 122 | 6.4 | 14.5 | 0.00 | 0.33 | 0.33 | 71 | 1014.0 |
| 20260507181522 | 15 | 139 | 8.0 | 11.3 | 0.00 | 0.33 | 0.33 | 69 | 1014.0 |
| 20260507180026 | 14 | 143 | 8.0 | 14.5 | 0.00 | 0.33 | 0.33 | 73 | 1014.0 |
| 20260507174530 | 13 | 155 | 6.4 | 12.9 | 0.00 | 0.33 | 0.33 | 79 | 1013.9 |
| 20260507173027 | 13 | 155 | 4.8 | 8.0 | 0.00 | 0.33 | 0.33 | 85 | 1013.9 |
| 20260507171521 | 13 | 170 | 3.2 | 9.7 | 0.00 | 0.33 | 0.33 | 83 | 1014.0 |
| 20260507170023 | 12 | 213 | 3.2 | 8.0 | 0.03 | 0.33 | 0.33 | 86 | 1014.2 |
| 20260507164527 | 12 | 158 | 3.2 | 11.3 | 0.05 | 0.33 | 0.33 | 85 | 1014.4 |
| 20260507163024 | 11 | 68 | 3.2 | 8.0 | 0.15 | 0.33 | 0.33 | 88 | 1014.6 |
| 20260507161521 | 10 | 105 | 0.0 | 3.2 | 0.15 | 0.33 | 0.33 | 91 | 1014.6 |
| 20260507160023 | 10 | 1 | 0.0 | 0.0 | 0.15 | 0.30 | 0.30 | 90 | 1014.5 |
| 20260507154522 | 10 | 271 | 0.0 | 0.0 | 0.13 | 0.28 | 0.28 | 90 | 1014.5 |
| 20260507153027 | 10 | 265 | 0.0 | 1.6 | 0.03 | 0.18 | 0.18 | 89 | 1014.3 |
| 20260507151529 | 10 | 285 | 0.0 | 0.0 | 0.03 | 0.18 | 0.18 | 88 | 1014.1 |
| 20260507150018 | 10 | 37 | 0.0 | 1.6 | 0.00 | 0.15 | 0.15 | 89 | 1014.2 |
| 20260507144526 | 10 | 6 | 0.0 | 4.8 | 0.00 | 0.15 | 0.15 | 90 | 1014.0 |
| 20260507143025 | 10 | 293 | 0.0 | 0.0 | 0.00 | 0.15 | 0.15 | 90 | 1013.8 |
| 20260507141527 | 10 | 232 | 0.0 | 0.0 | 0.00 | 0.15 | 0.15 | 90 | 1013.4 |
| 20260507140027 | 9 | 276 | 0.0 | 0.0 | 0.00 | 0.15 | 0.15 | 92 | 1013.4 |
| 20260507134530 | 9 | 342 | 0.0 | 0.0 | 0.00 | 0.15 | 0.15 | 92 | 1013.3 |
| 20260507133022 | 8 | 342 | 0.0 | 0.0 | 0.00 | 0.15 | 0.15 | 93 | 1013.1 |
| 20260507131524 | 8 | 94 | 0.0 | 1.6 | 0.00 | 0.15 | 0.15 | 93 | 1012.8 |
| 20260507130028 | 8 | 98 | 0.0 | 3.2 | 0.00 | 0.15 | 0.15 | 92 | 1012.6 |
| 20260507124528 | 8 | 3 | 1.6 | 4.8 | 0.00 | 0.15 | 0.15 | 93 | 1012.7 |
| 20260507123029 | 8 | 37 | 1.6 | 4.8 | 0.00 | 0.15 | 0.15 | 94 | 1012.5 |
| 20260507121506 | 8 | 283 | 0.0 | 1.6 | 0.00 | 0.15 | 0.15 | 93 | 1012.3 |
| 20260507120007 | 8 | 103 | 0.0 | 0.0 | 0.00 | 0.15 | 0.15 | 93 | 1012.0 |
| 20260507114514 | 8 | 103 | 0.0 | 1.6 | 0.00 | 0.15 | 0.15 | 93 | 1012.2 |
| 20260507113018 | 8 | 23 | 3.2 | 4.8 | 0.00 | 0.15 | 0.15 | 94 | 1012.2 |
| 20260507111504 | 8 | 281 | 0.0 | 0.0 | 0.00 | 0.15 | 0.15 | 92 | 1012.0 |
| 20260507110007 | 7 | 279 | 0.0 | 0.0 | 0.00 | 0.15 | 0.15 | 94 | 1011.9 |
| 20260507104511 | 7 | 8 | 0.0 | 3.2 | 0.00 | 0.15 | 0.15 | 93 | 1011.9 |
| 20260507103015 | 8 | 114 | 0.0 | 0.0 | 0.00 | 0.15 | 0.15 | 90 | 1011.9 |
| 20260507101518 | 8 | 296 | 3.2 | 4.8 | 0.00 | 0.15 | 0.15 | 89 | 1011.9 |
| 20260507100033 | 9 | 136 | 0.0 | 0.0 | 0.00 | 0.15 | 0.15 | 88 | 1011.5 |
| 20260507094506 | 9 | 166 | 0.0 | 6.4 | 0.00 | 0.15 | 0.15 | 89 | 1011.5 |
| 20260507093017 | 9 | 100 | 1.6 | 6.4 | 0.00 | 0.15 | 0.15 | 91 | 1011.7 |
| 20260507091525 | 10 | 263 | 1.6 | 9.7 | 0.00 | 0.15 | 0.15 | 89 | 1011.8 |
| 20260507090032 | 9 | 226 | 0.0 | 6.4 | 0.00 | 0.15 | 0.15 | 89 | 1011.5 |
| 20260507084525 | 10 | 308 | 0.0 | 8.0 | 0.00 | 0.15 | 0.15 | 86 | 1011.5 |
| 20260507083009 | 11 | 349 | 6.4 | 11.3 | 0.00 | 0.15 | 0.15 | 84 | 1011.9 |
| 20260507081520 | 10 | 327 | 4.8 | 9.7 | 0.00 | 0.15 | 0.15 | 88 | 1011.7 |
| 20260507080019 | 10 | 309 | 4.8 | 9.7 | 0.08 | 0.15 | 0.15 | 88 | 1011.9 |
| 20260507074521 | 10 | 324 | 0.0 | 3.2 | 0.15 | 0.15 | 0.15 | 89 | 1011.4 |
| 20260507073026 | 10 | 108 | 1.6 | 6.4 | 0.15 | 0.15 | 0.15 | 87 | 1011.4 |
| 20260507071509 | 11 | 27 | 1.6 | 9.7 | 0.15 | 0.15 | 0.15 | 85 | 1011.6 |
| 20260507070018 | 11 | 108 | 0.0 | 8.0 | 0.08 | 0.08 | 0.08 | 81 | 1011.6 |
| 20260507064517 | 11 | 128 | 3.2 | 6.4 | 0.00 | 0.00 | 0.00 | 78 | 1011.4 |
| 20260507063026 | 11 | 353 | 3.2 | 12.9 | 0.00 | 0.00 | 0.00 | 77 | 1011.1 |
| 20260507061503 | 11 | 345 | 0.0 | 0.0 | 0.00 | 0.00 | 0.00 | 79 | 1010.7 |